sensor_id;sensor_type;location;lat;lon;timestamp;P1;durP1;ratioP1;P2;durP2;ratioP2
22113;SDS011;11223;49.968;9.062;2023-02-28T00:00:17;3.15;;;1.92;;
22113;SDS011;11223;49.968;9.062;2023-02-28T00:02:43;2.65;;;2.10;;
22113;SDS011;11223;49.968;9.062;2023-02-28T00:05:10;3.65;;;2.67;;
22113;SDS011;11223;49.968;9.062;2023-02-28T00:07:38;1.73;;;1.63;;
22113;SDS011;11223;49.968;9.062;2023-02-28T00:10:07;2.15;;;2.05;;
22113;SDS011;11223;49.968;9.062;2023-02-28T00:12:35;1.73;;;1.63;;
22113;SDS011;11223;49.968;9.062;2023-02-28T00:15:01;2.67;;;1.90;;
22113;SDS011;11223;49.968;9.062;2023-02-28T00:17:30;5.45;;;2.95;;
22113;SDS011;11223;49.968;9.062;2023-02-28T00:19:55;2.27;;;1.60;;
22113;SDS011;11223;49.968;9.062;2023-02-28T00:22:22;2.83;;;2.10;;
22113;SDS011;11223;49.968;9.062;2023-02-28T00:24:47;2.70;;;2.50;;
22113;SDS011;11223;49.968;9.062;2023-02-28T00:27:14;2.28;;;1.80;;
22113;SDS011;11223;49.968;9.062;2023-02-28T00:29:39;1.70;;;1.57;;
22113;SDS011;11223;49.968;9.062;2023-02-28T00:32:05;2.13;;;1.93;;
22113;SDS011;11223;49.968;9.062;2023-02-28T00:34:31;4.97;;;1.80;;
22113;SDS011;11223;49.968;9.062;2023-02-28T00:37:02;3.85;;;1.77;;
22113;SDS011;11223;49.968;9.062;2023-02-28T00:39:30;2.90;;;1.77;;
22113;SDS011;11223;49.968;9.062;2023-02-28T00:41:57;4.90;;;2.35;;
22113;SDS011;11223;49.968;9.062;2023-02-28T00:44:23;1.70;;;1.60;;
22113;SDS011;11223;49.968;9.062;2023-02-28T00:46:49;1.90;;;1.77;;
22113;SDS011;11223;49.968;9.062;2023-02-28T00:49:14;2.70;;;2.50;;
22113;SDS011;11223;49.968;9.062;2023-02-28T00:51:40;2.17;;;1.87;;
22113;SDS011;11223;49.968;9.062;2023-02-28T00:54:05;2.30;;;1.90;;
22113;SDS011;11223;49.968;9.062;2023-02-28T00:56:31;2.10;;;1.90;;
22113;SDS011;11223;49.968;9.062;2023-02-28T00:58:56;2.17;;;1.33;;
22113;SDS011;11223;49.968;9.062;2023-02-28T01:01:22;2.60;;;1.77;;
22113;SDS011;11223;49.968;9.062;2023-02-28T01:03:48;2.23;;;1.70;;
22113;SDS011;11223;49.968;9.062;2023-02-28T01:06:13;2.00;;;1.90;;
22113;SDS011;11223;49.968;9.062;2023-02-28T01:08:39;2.20;;;2.07;;
22113;SDS011;11223;49.968;9.062;2023-02-28T01:11:12;2.20;;;2.00;;
22113;SDS011;11223;49.968;9.062;2023-02-28T01:13:40;2.33;;;1.30;;
22113;SDS011;11223;49.968;9.062;2023-02-28T01:16:07;3.25;;;2.45;;
22113;SDS011;11223;49.968;9.062;2023-02-28T01:18:33;3.78;;;2.22;;
22113;SDS011;11223;49.968;9.062;2023-02-28T01:21:02;5.10;;;1.53;;
22113;SDS011;11223;49.968;9.062;2023-02-28T01:23:33;2.13;;;1.92;;
22113;SDS011;11223;49.968;9.062;2023-02-28T01:28:31;2.00;;;1.90;;
22113;SDS011;11223;49.968;9.062;2023-02-28T01:30:57;3.23;;;2.73;;
22113;SDS011;11223;49.968;9.062;2023-02-28T01:33:23;2.03;;;1.83;;
22113;SDS011;11223;49.968;9.062;2023-02-28T01:35:48;2.70;;;1.90;;
22113;SDS011;11223;49.968;9.062;2023-02-28T01:38:14;2.13;;;1.93;;
22113;SDS011;11223;49.968;9.062;2023-02-28T01:40:40;2.90;;;2.00;;
22113;SDS011;11223;49.968;9.062;2023-02-28T01:43:16;1.83;;;1.73;;
22113;SDS011;11223;49.968;9.062;2023-02-28T01:45:55;2.63;;;2.35;;
22113;SDS011;11223;49.968;9.062;2023-02-28T01:48:24;3.10;;;2.90;;
22113;SDS011;11223;49.968;9.062;2023-02-28T01:50:52;2.50;;;1.92;;
22113;SDS011;11223;49.968;9.062;2023-02-28T01:53:22;3.88;;;2.25;;
22113;SDS011;11223;49.968;9.062;2023-02-28T01:55:51;2.85;;;2.45;;
22113;SDS011;11223;49.968;9.062;2023-02-28T01:58:19;2.33;;;2.13;;
22113;SDS011;11223;49.968;9.062;2023-02-28T02:00:45;2.40;;;2.20;;
22113;SDS011;11223;49.968;9.062;2023-02-28T02:03:13;3.38;;;1.90;;
22113;SDS011;11223;49.968;9.062;2023-02-28T02:05:43;2.40;;;2.05;;
22113;SDS011;11223;49.968;9.062;2023-02-28T02:08:12;2.38;;;2.00;;
22113;SDS011;11223;49.968;9.062;2023-02-28T02:10:48;2.38;;;2.17;;
22113;SDS011;11223;49.968;9.062;2023-02-28T02:19:10;1.73;;;1.63;;
22113;SDS011;11223;49.968;9.062;2023-02-28T02:24:47;2.38;;;2.00;;
22113;SDS011;11223;49.968;9.062;2023-02-28T02:36:13;4.88;;;2.20;;
22113;SDS011;11223;49.968;9.062;2023-02-28T02:39:02;3.70;;;2.15;;
22113;SDS011;11223;49.968;9.062;2023-02-28T02:47:01;1.85;;;1.63;;
22113;SDS011;11223;49.968;9.062;2023-02-28T02:49:33;2.78;;;2.08;;
22113;SDS011;11223;49.968;9.062;2023-02-28T02:52:04;1.80;;;1.70;;
22113;SDS011;11223;49.968;9.062;2023-02-28T02:54:33;2.58;;;2.28;;
22113;SDS011;11223;49.968;9.062;2023-02-28T02:57:03;2.20;;;2.00;;
22113;SDS011;11223;49.968;9.062;2023-02-28T02:59:37;2.10;;;1.90;;
22113;SDS011;11223;49.968;9.062;2023-02-28T03:02:06;3.10;;;2.50;;
22113;SDS011;11223;49.968;9.062;2023-02-28T03:04:38;3.00;;;2.35;;
22113;SDS011;11223;49.968;9.062;2023-02-28T03:07:08;2.28;;;2.08;;
22113;SDS011;11223;49.968;9.062;2023-02-28T03:09:34;4.10;;;2.70;;
22113;SDS011;11223;49.968;9.062;2023-02-28T03:12:00;2.20;;;2.00;;
22113;SDS011;11223;49.968;9.062;2023-02-28T03:25:27;2.38;;;2.17;;
22113;SDS011;11223;49.968;9.062;2023-02-28T03:28:02;6.05;;;2.35;;
22113;SDS011;11223;49.968;9.062;2023-02-28T03:33:20;2.20;;;2.03;;
22113;SDS011;11223;49.968;9.062;2023-02-28T03:35:53;2.30;;;2.20;;
22113;SDS011;11223;49.968;9.062;2023-02-28T03:38:59;3.13;;;2.70;;
22113;SDS011;11223;49.968;9.062;2023-02-28T03:41:28;2.70;;;2.50;;
22113;SDS011;11223;49.968;9.062;2023-02-28T03:44:35;6.78;;;4.00;;
22113;SDS011;11223;49.968;9.062;2023-02-28T03:47:11;5.20;;;3.78;;
22113;SDS011;11223;49.968;9.062;2023-02-28T03:49:51;3.90;;;3.60;;
22113;SDS011;11223;49.968;9.062;2023-02-28T03:52:21;2.92;;;2.58;;
22113;SDS011;11223;49.968;9.062;2023-02-28T03:54:51;2.97;;;2.47;;
22113;SDS011;11223;49.968;9.062;2023-02-28T03:57:32;4.82;;;3.15;;
22113;SDS011;11223;49.968;9.062;2023-02-28T04:00:14;3.97;;;2.33;;
22113;SDS011;11223;49.968;9.062;2023-02-28T04:02:44;2.58;;;2.38;;
22113;SDS011;11223;49.968;9.062;2023-02-28T04:05:10;3.27;;;2.47;;
22113;SDS011;11223;49.968;9.062;2023-02-28T04:07:36;2.53;;;1.90;;
22113;SDS011;11223;49.968;9.062;2023-02-28T04:10:03;3.35;;;2.60;;
22113;SDS011;11223;49.968;9.062;2023-02-28T04:12:29;3.15;;;2.53;;
22113;SDS011;11223;49.968;9.062;2023-02-28T04:14:55;2.37;;;2.17;;
22113;SDS011;11223;49.968;9.062;2023-02-28T04:17:20;3.23;;;2.40;;
22113;SDS011;11223;49.968;9.062;2023-02-28T04:19:46;2.53;;;2.33;;
22113;SDS011;11223;49.968;9.062;2023-02-28T04:22:11;2.27;;;2.07;;
22113;SDS011;11223;49.968;9.062;2023-02-28T04:24:37;3.00;;;2.70;;
22113;SDS011;11223;49.968;9.062;2023-02-28T04:27:06;5.55;;;3.20;;
22113;SDS011;11223;49.968;9.062;2023-02-28T04:29:33;3.42;;;2.97;;
22113;SDS011;11223;49.968;9.062;2023-02-28T04:31:59;3.67;;;2.80;;
22113;SDS011;11223;49.968;9.062;2023-02-28T04:34:26;3.80;;;2.65;;
22113;SDS011;11223;49.968;9.062;2023-02-28T04:36:52;3.70;;;2.70;;
22113;SDS011;11223;49.968;9.062;2023-02-28T04:39:19;3.15;;;2.70;;
22113;SDS011;11223;49.968;9.062;2023-02-28T04:41:46;3.70;;;3.40;;
22113;SDS011;11223;49.968;9.062;2023-02-28T04:44:12;4.07;;;3.30;;
22113;SDS011;11223;49.968;9.062;2023-02-28T04:46:38;3.35;;;2.60;;
22113;SDS011;11223;49.968;9.062;2023-02-28T04:49:04;4.00;;;3.13;;
22113;SDS011;11223;49.968;9.062;2023-02-28T04:51:29;2.93;;;2.73;;
22113;SDS011;11223;49.968;9.062;2023-02-28T04:53:55;3.30;;;2.87;;
22113;SDS011;11223;49.968;9.062;2023-02-28T04:56:21;2.58;;;2.33;;
22113;SDS011;11223;49.968;9.062;2023-02-28T04:58:47;4.45;;;2.40;;
22113;SDS011;11223;49.968;9.062;2023-02-28T05:01:18;3.30;;;2.75;;
22113;SDS011;11223;49.968;9.062;2023-02-28T05:03:47;3.97;;;2.90;;
22113;SDS011;11223;49.968;9.062;2023-02-28T05:06:13;4.10;;;2.75;;
22113;SDS011;11223;49.968;9.062;2023-02-28T05:08:40;4.78;;;2.58;;
22113;SDS011;11223;49.968;9.062;2023-02-28T05:11:07;4.80;;;3.22;;
22113;SDS011;11223;49.968;9.062;2023-02-28T05:13:44;3.17;;;2.80;;
22113;SDS011;11223;49.968;9.062;2023-02-28T05:16:09;5.80;;;2.60;;
22113;SDS011;11223;49.968;9.062;2023-02-28T05:18:35;2.90;;;2.63;;
22113;SDS011;11223;49.968;9.062;2023-02-28T05:21:01;2.97;;;2.42;;
22113;SDS011;11223;49.968;9.062;2023-02-28T05:23:28;3.45;;;2.65;;
22113;SDS011;11223;49.968;9.062;2023-02-28T05:25:53;7.20;;;3.20;;
22113;SDS011;11223;49.968;9.062;2023-02-28T05:28:20;3.08;;;2.33;;
22113;SDS011;11223;49.968;9.062;2023-02-28T05:30:46;4.00;;;2.60;;
22113;SDS011;11223;49.968;9.062;2023-02-28T05:33:11;3.15;;;2.80;;
22113;SDS011;11223;49.968;9.062;2023-02-28T05:35:38;2.33;;;2.15;;
22113;SDS011;11223;49.968;9.062;2023-02-28T05:38:05;4.35;;;2.88;;
22113;SDS011;11223;49.968;9.062;2023-02-28T05:40:31;3.58;;;3.28;;
22113;SDS011;11223;49.968;9.062;2023-02-28T05:42:57;3.60;;;3.30;;
22113;SDS011;11223;49.968;9.062;2023-02-28T05:45:22;4.73;;;3.17;;
22113;SDS011;11223;49.968;9.062;2023-02-28T05:47:48;3.70;;;3.30;;
22113;SDS011;11223;49.968;9.062;2023-02-28T05:50:13;3.77;;;2.77;;
22113;SDS011;11223;49.968;9.062;2023-02-28T05:52:39;3.13;;;2.37;;
22113;SDS011;11223;49.968;9.062;2023-02-28T05:55:05;3.83;;;3.40;;
22113;SDS011;11223;49.968;9.062;2023-02-28T05:57:31;4.55;;;3.40;;
22113;SDS011;11223;49.968;9.062;2023-02-28T05:59:57;3.23;;;2.70;;
22113;SDS011;11223;49.968;9.062;2023-02-28T06:02:22;4.63;;;3.70;;
22113;SDS011;11223;49.968;9.062;2023-02-28T06:04:48;9.33;;;4.27;;
22113;SDS011;11223;49.968;9.062;2023-02-28T06:07:14;4.43;;;3.67;;
22113;SDS011;11223;49.968;9.062;2023-02-28T06:09:40;5.18;;;3.33;;
22113;SDS011;11223;49.968;9.062;2023-02-28T06:12:06;3.67;;;3.33;;
22113;SDS011;11223;49.968;9.062;2023-02-28T06:14:34;6.07;;;2.78;;
22113;SDS011;11223;49.968;9.062;2023-02-28T06:17:00;2.60;;;2.40;;
22113;SDS011;11223;49.968;9.062;2023-02-28T06:19:26;5.65;;;3.05;;
22113;SDS011;11223;49.968;9.062;2023-02-28T06:21:52;4.57;;;3.50;;
22113;SDS011;11223;49.968;9.062;2023-02-28T06:24:19;3.20;;;2.80;;
22113;SDS011;11223;49.968;9.062;2023-02-28T06:26:49;4.07;;;3.13;;
22113;SDS011;11223;49.968;9.062;2023-02-28T06:29:15;3.60;;;3.30;;
22113;SDS011;11223;49.968;9.062;2023-02-28T06:31:43;4.22;;;3.60;;
22113;SDS011;11223;49.968;9.062;2023-02-28T06:34:09;3.22;;;2.38;;
22113;SDS011;11223;49.968;9.062;2023-02-28T06:36:36;3.80;;;3.20;;
22113;SDS011;11223;49.968;9.062;2023-02-28T06:39:06;4.47;;;3.83;;
22113;SDS011;11223;49.968;9.062;2023-02-28T06:41:32;3.97;;;3.58;;
22113;SDS011;11223;49.968;9.062;2023-02-28T06:44:03;8.50;;;5.38;;
22113;SDS011;11223;49.968;9.062;2023-02-28T06:46:42;2.97;;;2.40;;
22113;SDS011;11223;49.968;9.062;2023-02-28T06:49:09;2.50;;;2.30;;
22113;SDS011;11223;49.968;9.062;2023-02-28T06:51:39;3.47;;;2.72;;
22113;SDS011;11223;49.968;9.062;2023-02-28T06:54:06;3.80;;;3.33;;
22113;SDS011;11223;49.968;9.062;2023-02-28T06:56:35;4.50;;;3.05;;
22113;SDS011;11223;49.968;9.062;2023-02-28T06:59:01;3.47;;;3.17;;
22113;SDS011;11223;49.968;9.062;2023-02-28T07:01:27;6.97;;;3.05;;
22113;SDS011;11223;49.968;9.062;2023-02-28T07:03:53;4.53;;;4.13;;
22113;SDS011;11223;49.968;9.062;2023-02-28T07:06:19;4.25;;;2.75;;
22113;SDS011;11223;49.968;9.062;2023-02-28T07:08:47;4.22;;;2.65;;
22113;SDS011;11223;49.968;9.062;2023-02-28T07:11:14;3.63;;;2.97;;
22113;SDS011;11223;49.968;9.062;2023-02-28T07:13:39;2.60;;;2.43;;
22113;SDS011;11223;49.968;9.062;2023-02-28T07:16:06;6.60;;;4.43;;
22113;SDS011;11223;49.968;9.062;2023-02-28T07:18:34;16.48;;;8.57;;
22113;SDS011;11223;49.968;9.062;2023-02-28T07:21:04;18.13;;;7.53;;
22113;SDS011;11223;49.968;9.062;2023-02-28T07:23:31;8.20;;;4.90;;
22113;SDS011;11223;49.968;9.062;2023-02-28T07:25:57;13.93;;;6.73;;
22113;SDS011;11223;49.968;9.062;2023-02-28T07:28:23;27.53;;;11.43;;
22113;SDS011;11223;49.968;9.062;2023-02-28T07:30:49;44.63;;;18.00;;
22113;SDS011;11223;49.968;9.062;2023-02-28T07:33:15;9.13;;;6.80;;
22113;SDS011;11223;49.968;9.062;2023-02-28T07:35:41;5.43;;;3.20;;
22113;SDS011;11223;49.968;9.062;2023-02-28T07:38:06;3.53;;;3.23;;
22113;SDS011;11223;49.968;9.062;2023-02-28T07:40:33;3.70;;;3.30;;
22113;SDS011;11223;49.968;9.062;2023-02-28T07:42:59;2.63;;;2.42;;
22113;SDS011;11223;49.968;9.062;2023-02-28T07:45:26;3.20;;;2.40;;
22113;SDS011;11223;49.968;9.062;2023-02-28T07:47:54;3.90;;;2.67;;
22113;SDS011;11223;49.968;9.062;2023-02-28T07:50:19;3.80;;;3.45;;
22113;SDS011;11223;49.968;9.062;2023-02-28T07:52:46;4.40;;;3.45;;
22113;SDS011;11223;49.968;9.062;2023-02-28T07:55:12;3.30;;;3.03;;
22113;SDS011;11223;49.968;9.062;2023-02-28T07:57:38;5.20;;;2.83;;
22113;SDS011;11223;49.968;9.062;2023-02-28T08:00:06;3.42;;;2.95;;
22113;SDS011;11223;49.968;9.062;2023-02-28T08:02:34;4.03;;;2.53;;
22113;SDS011;11223;49.968;9.062;2023-02-28T08:05:01;3.33;;;3.00;;
22113;SDS011;11223;49.968;9.062;2023-02-28T08:07:27;3.28;;;2.97;;
22113;SDS011;11223;49.968;9.062;2023-02-28T08:09:53;4.73;;;4.30;;
22113;SDS011;11223;49.968;9.062;2023-02-28T08:12:19;4.60;;;3.57;;
22113;SDS011;11223;49.968;9.062;2023-02-28T08:14:45;4.07;;;3.67;;
22113;SDS011;11223;49.968;9.062;2023-02-28T08:17:10;2.93;;;2.57;;
22113;SDS011;11223;49.968;9.062;2023-02-28T08:19:36;3.03;;;2.80;;
22113;SDS011;11223;49.968;9.062;2023-02-28T08:22:02;3.95;;;3.55;;
22113;SDS011;11223;49.968;9.062;2023-02-28T08:24:28;3.87;;;3.53;;
22113;SDS011;11223;49.968;9.062;2023-02-28T08:26:54;3.90;;;3.30;;
22113;SDS011;11223;49.968;9.062;2023-02-28T08:29:20;3.33;;;3.00;;
22113;SDS011;11223;49.968;9.062;2023-02-28T08:31:46;3.87;;;3.17;;
22113;SDS011;11223;49.968;9.062;2023-02-28T08:34:12;5.67;;;5.17;;
22113;SDS011;11223;49.968;9.062;2023-02-28T08:36:39;6.88;;;4.88;;
22113;SDS011;11223;49.968;9.062;2023-02-28T08:39:06;4.88;;;4.45;;
22113;SDS011;11223;49.968;9.062;2023-02-28T08:41:32;6.80;;;6.30;;
22113;SDS011;11223;49.968;9.062;2023-02-28T08:43:58;7.45;;;6.55;;
22113;SDS011;11223;49.968;9.062;2023-02-28T08:46:25;4.82;;;4.43;;
22113;SDS011;11223;49.968;9.062;2023-02-28T08:48:51;6.33;;;5.30;;
22113;SDS011;11223;49.968;9.062;2023-02-28T08:51:19;5.30;;;4.50;;
22113;SDS011;11223;49.968;9.062;2023-02-28T08:53:51;4.82;;;4.20;;
22113;SDS011;11223;49.968;9.062;2023-02-28T08:56:17;5.10;;;4.60;;
22113;SDS011;11223;49.968;9.062;2023-02-28T08:58:43;5.82;;;4.20;;
22113;SDS011;11223;49.968;9.062;2023-02-28T09:01:12;8.93;;;5.40;;
22113;SDS011;11223;49.968;9.062;2023-02-28T09:03:40;5.07;;;4.57;;
22113;SDS011;11223;49.968;9.062;2023-02-28T09:06:11;5.63;;;4.30;;
22113;SDS011;11223;49.968;9.062;2023-02-28T09:08:37;5.47;;;4.72;;
22113;SDS011;11223;49.968;9.062;2023-02-28T09:11:03;4.13;;;3.77;;
22113;SDS011;11223;49.968;9.062;2023-02-28T09:13:29;5.32;;;4.82;;
22113;SDS011;11223;49.968;9.062;2023-02-28T09:15:59;6.90;;;6.20;;
22113;SDS011;11223;49.968;9.062;2023-02-28T09:18:26;5.88;;;4.70;;
22113;SDS011;11223;49.968;9.062;2023-02-28T09:20:52;3.97;;;3.67;;
22113;SDS011;11223;49.968;9.062;2023-02-28T09:23:17;5.27;;;4.77;;
22113;SDS011;11223;49.968;9.062;2023-02-28T09:25:51;5.10;;;4.65;;
22113;SDS011;11223;49.968;9.062;2023-02-28T09:28:18;5.63;;;5.22;;
22113;SDS011;11223;49.968;9.062;2023-02-28T09:30:45;6.07;;;5.47;;
22113;SDS011;11223;49.968;9.062;2023-02-28T09:33:16;7.30;;;5.47;;
22113;SDS011;11223;49.968;9.062;2023-02-28T09:35:44;5.47;;;4.97;;
22113;SDS011;11223;49.968;9.062;2023-02-28T09:38:10;4.67;;;4.20;;
22113;SDS011;11223;49.968;9.062;2023-02-28T09:43:10;5.07;;;4.57;;
22113;SDS011;11223;49.968;9.062;2023-02-28T09:45:40;5.60;;;5.10;;
22113;SDS011;11223;49.968;9.062;2023-02-28T09:48:50;4.80;;;4.50;;
22113;SDS011;11223;49.968;9.062;2023-02-28T09:54:13;6.07;;;5.05;;
22113;SDS011;11223;49.968;9.062;2023-02-28T09:56:43;5.45;;;5.05;;
22113;SDS011;11223;49.968;9.062;2023-02-28T10:04:52;5.50;;;4.90;;
22113;SDS011;11223;49.968;9.062;2023-02-28T10:07:23;4.80;;;4.30;;
22113;SDS011;11223;49.968;9.062;2023-02-28T10:10:28;5.70;;;4.93;;
22113;SDS011;11223;49.968;9.062;2023-02-28T10:12:55;4.55;;;4.18;;
22113;SDS011;11223;49.968;9.062;2023-02-28T10:15:25;4.57;;;4.05;;
22113;SDS011;11223;49.968;9.062;2023-02-28T10:17:56;5.13;;;4.63;;
22113;SDS011;11223;49.968;9.062;2023-02-28T10:20:25;5.43;;;4.93;;
22113;SDS011;11223;49.968;9.062;2023-02-28T10:23:08;4.70;;;4.30;;
22113;SDS011;11223;49.968;9.062;2023-02-28T10:25:38;6.00;;;5.40;;
22113;SDS011;11223;49.968;9.062;2023-02-28T10:30:33;3.95;;;3.33;;
22113;SDS011;11223;49.968;9.062;2023-02-28T10:32:59;7.40;;;3.80;;
22113;SDS011;11223;49.968;9.062;2023-02-28T10:35:25;4.93;;;4.30;;
22113;SDS011;11223;49.968;9.062;2023-02-28T10:37:58;5.45;;;4.93;;
22113;SDS011;11223;49.968;9.062;2023-02-28T10:40:30;4.18;;;3.63;;
22113;SDS011;11223;49.968;9.062;2023-02-28T10:43:05;4.70;;;4.03;;
22113;SDS011;11223;49.968;9.062;2023-02-28T10:45:53;4.28;;;3.88;;
22113;SDS011;11223;49.968;9.062;2023-02-28T10:48:33;5.38;;;4.00;;
22113;SDS011;11223;49.968;9.062;2023-02-28T10:51:01;3.28;;;2.97;;
22113;SDS011;11223;49.968;9.062;2023-02-28T10:56:24;4.80;;;3.63;;
22113;SDS011;11223;49.968;9.062;2023-02-28T10:58:53;5.22;;;4.78;;
22113;SDS011;11223;49.968;9.062;2023-02-28T11:01:45;4.55;;;3.92;;
22113;SDS011;11223;49.968;9.062;2023-02-28T11:04:18;4.63;;;4.05;;
22113;SDS011;11223;49.968;9.062;2023-02-28T11:06:47;4.70;;;4.15;;
22113;SDS011;11223;49.968;9.062;2023-02-28T11:09:25;5.40;;;4.90;;
22113;SDS011;11223;49.968;9.062;2023-02-28T11:11:55;6.07;;;5.50;;
22113;SDS011;11223;49.968;9.062;2023-02-28T11:16:49;4.53;;;4.22;;
22113;SDS011;11223;49.968;9.062;2023-02-28T11:19:23;4.80;;;4.30;;
22113;SDS011;11223;49.968;9.062;2023-02-28T11:21:54;5.13;;;3.97;;
22113;SDS011;11223;49.968;9.062;2023-02-28T11:24:29;4.82;;;4.43;;
22113;SDS011;11223;49.968;9.062;2023-02-28T11:27:01;5.05;;;4.65;;
22113;SDS011;11223;49.968;9.062;2023-02-28T11:29:30;5.50;;;4.73;;
22113;SDS011;11223;49.968;9.062;2023-02-28T11:32:12;5.95;;;5.05;;
22113;SDS011;11223;49.968;9.062;2023-02-28T11:34:42;5.38;;;4.88;;
22113;SDS011;11223;49.968;9.062;2023-02-28T11:37:17;5.90;;;5.40;;
22113;SDS011;11223;49.968;9.062;2023-02-28T11:39:44;5.18;;;4.78;;
22113;SDS011;11223;49.968;9.062;2023-02-28T11:44:59;4.55;;;4.10;;
22113;SDS011;11223;49.968;9.062;2023-02-28T11:50:15;7.47;;;4.40;;
22113;SDS011;11223;49.968;9.062;2023-02-28T11:52:55;5.20;;;4.70;;
22113;SDS011;11223;49.968;9.062;2023-02-28T11:55:27;6.95;;;5.88;;
22113;SDS011;11223;49.968;9.062;2023-02-28T12:01:09;5.45;;;4.95;;
22113;SDS011;11223;49.968;9.062;2023-02-28T12:06:22;5.50;;;4.97;;
22113;SDS011;11223;49.968;9.062;2023-02-28T12:14:30;6.45;;;5.82;;
22113;SDS011;11223;49.968;9.062;2023-02-28T12:17:19;6.13;;;5.53;;
22113;SDS011;11223;49.968;9.062;2023-02-28T12:22:49;6.75;;;4.85;;
22113;SDS011;11223;49.968;9.062;2023-02-28T12:28:58;4.72;;;4.25;;
22113;SDS011;11223;49.968;9.062;2023-02-28T12:31:53;4.47;;;4.07;;
22113;SDS011;11223;49.968;9.062;2023-02-28T12:34:32;4.30;;;3.85;;
22113;SDS011;11223;49.968;9.062;2023-02-28T12:37:04;4.68;;;3.85;;
22113;SDS011;11223;49.968;9.062;2023-02-28T12:39:40;4.50;;;4.07;;
22113;SDS011;11223;49.968;9.062;2023-02-28T12:42:13;4.18;;;3.78;;
22113;SDS011;11223;49.968;9.062;2023-02-28T12:44:54;4.55;;;4.25;;
22113;SDS011;11223;49.968;9.062;2023-02-28T12:47:24;4.05;;;3.75;;
22113;SDS011;11223;49.968;9.062;2023-02-28T12:49:52;4.70;;;4.30;;
22113;SDS011;11223;49.968;9.062;2023-02-28T12:52:25;4.63;;;3.72;;
22113;SDS011;11223;49.968;9.062;2023-02-28T12:55:15;6.53;;;3.75;;
22113;SDS011;11223;49.968;9.062;2023-02-28T13:00:33;4.60;;;4.15;;
22113;SDS011;11223;49.968;9.062;2023-02-28T13:06:07;4.60;;;4.00;;
22113;SDS011;11223;49.968;9.062;2023-02-28T13:11:26;5.28;;;4.22;;
22113;SDS011;11223;49.968;9.062;2023-02-28T13:16:56;5.18;;;4.57;;
22113;SDS011;11223;49.968;9.062;2023-02-28T13:19:25;5.63;;;3.70;;
22113;SDS011;11223;49.968;9.062;2023-02-28T13:21:54;4.10;;;3.70;;
22113;SDS011;11223;49.968;9.062;2023-02-28T13:24:38;12.93;;;4.40;;
22113;SDS011;11223;49.968;9.062;2023-02-28T13:29:41;4.32;;;3.92;;
22113;SDS011;11223;49.968;9.062;2023-02-28T13:47:38;5.97;;;4.45;;
22113;SDS011;11223;49.968;9.062;2023-02-28T13:50:33;3.75;;;3.45;;
22113;SDS011;11223;49.968;9.062;2023-02-28T13:55:46;4.90;;;3.90;;
22113;SDS011;11223;49.968;9.062;2023-02-28T13:58:23;6.68;;;3.75;;
22113;SDS011;11223;49.968;9.062;2023-02-28T14:06:23;4.03;;;3.72;;
22113;SDS011;11223;49.968;9.062;2023-02-28T14:08:59;4.22;;;3.30;;
22113;SDS011;11223;49.968;9.062;2023-02-28T14:11:33;4.70;;;3.65;;
22113;SDS011;11223;49.968;9.062;2023-02-28T14:14:01;7.30;;;5.57;;
22113;SDS011;11223;49.968;9.062;2023-02-28T14:16:35;3.75;;;3.45;;
22113;SDS011;11223;49.968;9.062;2023-02-28T14:19:11;3.80;;;3.25;;
22113;SDS011;11223;49.968;9.062;2023-02-28T14:21:46;4.32;;;3.92;;
22113;SDS011;11223;49.968;9.062;2023-02-28T14:27:37;5.10;;;4.53;;
22113;SDS011;11223;49.968;9.062;2023-02-28T14:36:04;4.47;;;3.92;;
22113;SDS011;11223;49.968;9.062;2023-02-28T14:38:36;4.88;;;4.38;;
22113;SDS011;11223;49.968;9.062;2023-02-28T14:41:15;4.40;;;3.90;;
22113;SDS011;11223;49.968;9.062;2023-02-28T14:43:50;5.85;;;3.92;;
22113;SDS011;11223;49.968;9.062;2023-02-28T14:46:17;5.70;;;4.07;;
22113;SDS011;11223;49.968;9.062;2023-02-28T14:48:45;3.72;;;3.42;;
22113;SDS011;11223;49.968;9.062;2023-02-28T14:51:19;4.97;;;4.47;;
22113;SDS011;11223;49.968;9.062;2023-02-28T14:53:48;7.00;;;5.40;;
22113;SDS011;11223;49.968;9.062;2023-02-28T14:56:19;4.57;;;4.15;;
22113;SDS011;11223;49.968;9.062;2023-02-28T14:58:54;4.15;;;3.75;;
22113;SDS011;11223;49.968;9.062;2023-02-28T15:01:21;4.55;;;3.85;;
22113;SDS011;11223;49.968;9.062;2023-02-28T15:03:50;5.65;;;5.07;;
22113;SDS011;11223;49.968;9.062;2023-02-28T15:06:30;4.35;;;3.95;;
22113;SDS011;11223;49.968;9.062;2023-02-28T15:11:51;4.65;;;4.22;;
22113;SDS011;11223;49.968;9.062;2023-02-28T15:14:20;4.60;;;4.10;;
22113;SDS011;11223;49.968;9.062;2023-02-28T15:16:49;4.32;;;3.90;;
22113;SDS011;11223;49.968;9.062;2023-02-28T15:19:40;4.05;;;3.65;;
22113;SDS011;11223;49.968;9.062;2023-02-28T15:22:13;4.95;;;4.45;;
22113;SDS011;11223;49.968;9.062;2023-02-28T15:27:14;4.68;;;4.22;;
22113;SDS011;11223;49.968;9.062;2023-02-28T15:29:47;4.40;;;3.92;;
22113;SDS011;11223;49.968;9.062;2023-02-28T15:32:29;4.20;;;3.80;;
22113;SDS011;11223;49.968;9.062;2023-02-28T15:34:59;6.05;;;5.10;;
22113;SDS011;11223;49.968;9.062;2023-02-28T15:37:55;5.15;;;3.88;;
22113;SDS011;11223;49.968;9.062;2023-02-28T15:40:23;6.25;;;4.80;;
22113;SDS011;11223;49.968;9.062;2023-02-28T15:42:57;5.90;;;4.47;;
22113;SDS011;11223;49.968;9.062;2023-02-28T15:45:29;4.97;;;4.47;;
22113;SDS011;11223;49.968;9.062;2023-02-28T15:48:11;5.38;;;4.10;;
22113;SDS011;11223;49.968;9.062;2023-02-28T15:50:43;5.22;;;4.72;;
22113;SDS011;11223;49.968;9.062;2023-02-28T15:53:12;5.18;;;4.70;;
22113;SDS011;11223;49.968;9.062;2023-02-28T15:55:40;4.88;;;4.47;;
22113;SDS011;11223;49.968;9.062;2023-02-28T15:58:08;6.50;;;4.15;;
22113;SDS011;11223;49.968;9.062;2023-02-28T16:00:38;5.05;;;4.45;;
22113;SDS011;11223;49.968;9.062;2023-02-28T16:03:23;5.63;;;5.13;;
22113;SDS011;11223;49.968;9.062;2023-02-28T16:08:44;4.70;;;3.88;;
22113;SDS011;11223;49.968;9.062;2023-02-28T16:11:10;5.57;;;4.23;;
22113;SDS011;11223;49.968;9.062;2023-02-28T16:13:36;4.33;;;3.93;;
22113;SDS011;11223;49.968;9.062;2023-02-28T16:16:02;4.70;;;4.35;;
22113;SDS011;11223;49.968;9.062;2023-02-28T16:18:28;5.53;;;4.25;;
22113;SDS011;11223;49.968;9.062;2023-02-28T16:20:53;5.23;;;4.83;;
22113;SDS011;11223;49.968;9.062;2023-02-28T16:23:19;4.67;;;4.00;;
22113;SDS011;11223;49.968;9.062;2023-02-28T16:25:44;7.37;;;4.33;;
22113;SDS011;11223;49.968;9.062;2023-02-28T16:28:21;4.85;;;4.40;;
22113;SDS011;11223;49.968;9.062;2023-02-28T16:30:51;8.00;;;5.47;;
22113;SDS011;11223;49.968;9.062;2023-02-28T16:33:16;5.32;;;4.70;;
22113;SDS011;11223;49.968;9.062;2023-02-28T16:35:42;6.07;;;5.43;;
22113;SDS011;11223;49.968;9.062;2023-02-28T16:38:08;9.20;;;5.60;;
22113;SDS011;11223;49.968;9.062;2023-02-28T16:40:35;9.55;;;6.80;;
22113;SDS011;11223;49.968;9.062;2023-02-28T16:43:01;7.45;;;5.95;;
22113;SDS011;11223;49.968;9.062;2023-02-28T16:45:32;6.43;;;5.22;;
22113;SDS011;11223;49.968;9.062;2023-02-28T16:47:58;6.40;;;5.10;;
22113;SDS011;11223;49.968;9.062;2023-02-28T16:50:28;4.67;;;4.27;;
22113;SDS011;11223;49.968;9.062;2023-02-28T16:52:57;6.00;;;4.88;;
22113;SDS011;11223;49.968;9.062;2023-02-28T16:55:24;6.40;;;4.70;;
22113;SDS011;11223;49.968;9.062;2023-02-28T16:57:54;6.97;;;4.70;;
22113;SDS011;11223;49.968;9.062;2023-02-28T17:00:22;6.82;;;6.07;;
22113;SDS011;11223;49.968;9.062;2023-02-28T17:02:48;6.97;;;5.10;;
22113;SDS011;11223;49.968;9.062;2023-02-28T17:05:14;6.00;;;5.20;;
22113;SDS011;11223;49.968;9.062;2023-02-28T17:07:40;7.57;;;5.75;;
22113;SDS011;11223;49.968;9.062;2023-02-28T17:10:21;5.43;;;4.97;;
22113;SDS011;11223;49.968;9.062;2023-02-28T17:12:49;7.97;;;7.15;;
22113;SDS011;11223;49.968;9.062;2023-02-28T17:15:16;6.95;;;6.28;;
22113;SDS011;11223;49.968;9.062;2023-02-28T17:17:44;10.35;;;8.32;;
22113;SDS011;11223;49.968;9.062;2023-02-28T17:20:15;8.93;;;8.02;;